Central Virginia Flyers


Central Virginia Flyers is a 10 member flying club based in Richmond, VA at Hanover County Airport (KOFP). We own N787AT, a 1977 Cessna 172 with 180hp conversion. If you are interested in membership, please contact Brenton at [email protected]


Aviation Digital Data Service (ADDS)

Output produced by METARs form (2216 UTC 18 July 2019)
found at http://aviationweather.gov/metar/data/
 
KOFP 182209Z AUTO VRB04G21KT 1/2SM +TSRA FG BKN017 BKN040 OVC047 25/23 A2989 RMK AO2 P0048 T02500228
KRIC 182154Z 26010KT 10SM BKN050 BKN100 BKN200 33/22 A2985 RMK AO2 SLP110 CB DSNT W T03330222
KRIC 182135Z 1822/1918 24009KT P6SM VCTS SCT040CB 
     TEMPO 1822/1901 3SM TSRA BR BKN035CB 
     FM190100 21004KT P6SM BKN100 
     FM191000 VRB03KT P6SM SCT050